Wednesday, November 22, 2017, 4:36 PM GMT
Back to Local

CYGK, Kingston, Ont.

Location: , , Canada Lat: 44.217
Local Time: 4:36 PM GMT (16:36 GMT) Lon: -76.6
Time Zone: GMT Elev: 305 ft

Show me the last for .
Show Decoded

2017-11-22 16:08 METAR CYGK 221608Z 29007KT 12SM -SHGS SCT020 OVC038 02/M01 A3004 RMK CU3SC5
                 SLP175 =
2017-11-22 16:00 METAR CYGK 221600Z 30008KT 15SM FEW020 OVC043 02/M01 A3004 RMK CU2SC6 SLP176 =
2017-11-22 15:00 METAR CYGK 221500Z 28007KT 15SM FEW015 BKN044 OVC068 02/M01 A3004 RMK CF1SC6AC1
                 SLP175 =
2017-11-22 14:00 METAR CYGK 221400Z 28008KT 15SM FEW015 BKN044 OVC066 02/M01 A3003 RMK CF1SC7AC1
                 CF TR SLP173 =
2017-11-22 13:00 METAR CYGK 221300Z 27006KT 15SM FEW020 OVC066 02/00 A3001 RMK CF1AC8 CF TR
                 SLP167 =
2017-11-22 12:00 METAR CYGK 221200Z 27007KT 15SM FEW020 OVC065 02/00 A2999 RMK CF1SC8 CF TR
                 SLP159 =
2017-11-22 11:25 METAR CYGK 221125Z 26007KT 15SM OVC060 03/01 A2998 RMK SC8 SLP156 =
2017-11-22 11:00 METAR CYGK 221100Z 26004KT 15SM -SN OVC050 02/01 A2997 RMK SC8 SLP152 =
2017-11-22 04:00 METAR CYGK 220400Z 25013G20KT 15SM -RA BKN060 OVC120 09/04 A2981 RMK SC6AC2 LAST
                 STFD OBS/NEXT 221100 UTC SLP100 =
2017-11-22 03:47 METAR CYGK 220347Z 24014G20KT 15SM -RA SCT060 OVC080 09/04 A2982 RMK SC3AC5
                 SLP101 =
2017-11-22 03:00 METAR CYGK 220300Z 24009G16KT 15SM BKN075 OVC120 09/04 A2981 RMK AC7AC1 SLP097 =
2017-11-22 02:00 METAR CYGK 220200Z 23013G18KT 15SM BKN076 OVC160 09/03 A2981 RMK AC5AC3 SLP099 =
2017-11-22 01:00 METAR CYGK 220100Z 24012G20KT 15SM BKN070 OVC160 09/03 A2980 RMK AC5AC3 SLP096 =
2017-11-22 00:00 METAR CYGK 220000Z 24015G21KT 15SM SCT220 09/03 A2980 RMK CI3 SLP095 =
2017-11-21 23:00 METAR CYGK 212300Z 24011G17KT 15SM FEW220 08/03 A2978 RMK CI2 SLP090 =
2017-11-21 22:00 METAR CYGK 212200Z 23012G18KT 15SM FEW180 SCT220 09/02 A2976 RMK AC1CI3 AC TR
                 SLP083 =
2017-11-21 21:00 METAR CYGK 212100Z 24006KT 15SM FEW180 BKN220 10/01 A2975 RMK AC1CI4 SLP078 =
2017-11-21 20:00 METAR CYGK 212000Z 20010KT 15SM SCT180 SCT250 10/03 A2972 RMK AC3CI1 SLP068 =
2017-11-21 19:00 METAR CYGK 211900Z 21012G18KT 15SM SCT180 BKN200 BKN220 10/02 A2970 RMK
                 AC4CI2CI1 SLP062 =
2017-11-21 18:00 METAR CYGK 211800Z 20015G22KT 15SM SCT160 BKN240 09/01 A2971 RMK AC3CI4 SLP063 =
2017-11-21 17:00 METAR CYGK 211700Z 20017G26KT 15SM SCT200 BKN250 09/01 A2971 RMK CI4CI3 SLP066 =

Support USWX by starting your Amazon purchase here.